PWSweather.com
Personal Weather Stations
Station Observations
CANDIOTINO
Barrio Candioti Norte, Santa FeAR 3000

Barrio Candioti NorteSanta FeAR 3000

Lat: -31.632778, Lon: -60.695556

Elevation: 69

Station Type: WH-1081

http://www.eltiempoensantafe.com.ar

Latest ConditionsUpdated 2:30:02 PM GMT-03:57 Sunday, Jan 26, 2020
Currently Today's Max Today's Min Today's Average
Temperature 96.1°F35.6°C 97.0°F36.1°C 76.8°F24.9°C 85.3°F29.6°C
Dew Point 62.4°F16.9°C 68.1°F20.1°C 60.7°F15.9°C 64.4°F18.0°C
Winds 6.0 mph SSE9.7 kmh SSE 6.9 mph -11.1 kmh - - 2.6 mph 4.2 kmh
Wind Gusts 8.3 mph13.4 kmh 10.7 mph17.2 kmh - -
Humidity 33% 73% 31% 51%
Pressure 29.70 in1005.8 mb 29.73 in1006.8 mb 29.66 in1004.4 mb -
Hour Temp Dew Point Humidity Winds Wind Gusts Pressure Precip Precip Rate Daily Precip Total
02:30 PM 96.1°F35.6°C 62.4°F16.9°C 33% 6.0 mph SSE9.7 kmh SSE 8.3 mph13.4 kmh 29.70 in1005.8 mb 0.00 in0.0 mm 0.00 in0.0 mm 0.00 in0.0 mm
02:15 PM 97.0°F36.1°C 61.4°F16.3°C 31% 3.1 mph S5.0 kmh S 9.8 mph15.8 kmh 29.70 in1005.8 mb 0.00 in0.0 mm 0.00 in0.0 mm 0.00 in0.0 mm
02:00 PM 95.9°F35.5°C 62.2°F16.8°C 33% 6.0 mph SSE9.7 kmh SSE 10.7 mph17.2 kmh 29.71 in1006.1 mb 0.00 in0.0 mm 0.00 in0.0 mm 0.00 in0.0 mm
01:45 PM 95.5°F35.3°C 62.8°F17.1°C 34% 6.0 mph SSE9.7 kmh SSE 10.7 mph17.2 kmh 29.71 in1006.1 mb 0.00 in0.0 mm 0.00 in0.0 mm 0.00 in0.0 mm
01:30 PM 93.6°F34.2°C 62.7°F17.1°C 36% 4.5 mph SSE7.2 kmh SSE 10.7 mph17.2 kmh 29.72 in1006.4 mb 0.00 in0.0 mm 0.00 in0.0 mm 0.00 in0.0 mm
01:15 PM 93.2°F34.0°C 60.7°F15.9°C 34% 6.9 mph S11.1 kmh S 9.8 mph15.8 kmh 29.72 in1006.4 mb 0.00 in0.0 mm 0.00 in0.0 mm 0.00 in0.0 mm
01:00 PM 93.2°F34.0°C 63.9°F17.7°C 38% 5.4 mph S8.7 kmh S 8.3 mph13.4 kmh 29.72 in1006.4 mb 0.00 in0.0 mm 0.00 in0.0 mm 0.00 in0.0 mm
12:45 PM 93.9°F34.4°C 63.8°F17.7°C 37% 5.4 mph S8.7 kmh S 9.2 mph14.8 kmh 29.72 in1006.4 mb 0.00 in0.0 mm 0.00 in0.0 mm 0.00 in0.0 mm
12:30 PM 94.3°F34.6°C 61.7°F16.5°C 34% 2.2 mph SSE3.5 kmh SSE 9.8 mph15.8 kmh 29.72 in1006.4 mb 0.00 in0.0 mm 0.00 in0.0 mm 0.00 in0.0 mm
12:15 PM 95.0°F35.0°C 62.3°F16.8°C 34% 4.5 mph SSE7.2 kmh SSE 8.3 mph13.4 kmh 29.72 in1006.4 mb 0.00 in0.0 mm 0.00 in0.0 mm 0.00 in0.0 mm
12:00 PM 94.5°F34.7°C 64.2°F17.9°C 37% 1.6 mph S2.6 kmh S 7.6 mph12.2 kmh 29.72 in1006.4 mb 0.00 in0.0 mm 0.00 in0.0 mm 0.00 in0.0 mm
11:45 AM 94.1°F34.5°C 63.1°F17.3°C 36% 4.5 mph S7.2 kmh S 8.3 mph13.4 kmh 29.72 in1006.4 mb 0.00 in0.0 mm 0.00 in0.0 mm 0.00 in0.0 mm
11:30 AM 94.3°F34.6°C 64.8°F18.2°C 38% 3.8 mph S6.1 kmh S 7.6 mph12.2 kmh 29.72 in1006.4 mb 0.00 in0.0 mm 0.00 in0.0 mm 0.00 in0.0 mm
11:15 AM 94.3°F34.6°C 65.6°F18.7°C 39% 3.1 mph S5.0 kmh S 7.6 mph12.2 kmh 29.73 in1006.8 mb 0.00 in0.0 mm 0.00 in0.0 mm 0.00 in0.0 mm
11:00 AM 92.1°F33.4°C 65.1°F18.4°C 41% 2.2 mph SSE3.5 kmh SSE 7.6 mph12.2 kmh 29.72 in1006.4 mb 0.00 in0.0 mm 0.00 in0.0 mm 0.00 in0.0 mm
10:45 AM 91.2°F32.9°C 66.3°F19.1°C 44% 3.8 mph SE6.1 kmh SE 7.6 mph12.2 kmh 29.72 in1006.4 mb 0.00 in0.0 mm 0.00 in0.0 mm 0.00 in0.0 mm
10:30 AM 92.5°F33.6°C 68.1°F20.1°C 45% 1.6 mph SE2.6 kmh SE 5.4 mph8.7 kmh 29.72 in1006.4 mb 0.00 in0.0 mm 0.00 in0.0 mm 0.00 in0.0 mm
10:15 AM 91.0°F32.8°C 64.1°F17.8°C 41% 2.2 mph SE3.5 kmh SE 4.5 mph7.2 kmh 29.71 in1006.1 mb 0.00 in0.0 mm 0.00 in0.0 mm 0.00 in0.0 mm
10:00 AM 91.4°F33.0°C 65.8°F18.8°C 43% 0.7 mph SE1.1 kmh SE 3.8 mph6.1 kmh 29.71 in1006.1 mb 0.00 in0.0 mm 0.00 in0.0 mm 0.00 in0.0 mm
09:45 AM 89.4°F31.9°C 65.3°F18.5°C 45% 0.7 mph SE1.1 kmh SE 6.0 mph9.7 kmh 29.72 in1006.4 mb 0.00 in0.0 mm 0.00 in0.0 mm 0.00 in0.0 mm
09:30 AM 89.1°F31.7°C 64.4°F18.0°C 44% 3.8 mph ESE6.1 kmh ESE 5.4 mph8.7 kmh 29.71 in1006.1 mb 0.00 in0.0 mm 0.00 in0.0 mm 0.00 in0.0 mm
09:15 AM 87.3°F30.7°C 64.6°F18.1°C 47% 0.7 mph E1.1 kmh E 3.8 mph6.1 kmh 29.72 in1006.4 mb 0.00 in0.0 mm 0.00 in0.0 mm 0.00 in0.0 mm
09:00 AM 84.9°F29.4°C 64.8°F18.2°C 51% 2.2 mph SE3.5 kmh SE 4.5 mph7.2 kmh 29.71 in1006.1 mb 0.00 in0.0 mm 0.00 in0.0 mm 0.00 in0.0 mm
08:45 AM 84.9°F29.4°C 66.5°F19.2°C 54% 3.1 mph S5.0 kmh S 6.0 mph9.7 kmh 29.72 in1006.4 mb 0.00 in0.0 mm 0.00 in0.0 mm 0.00 in0.0 mm
08:30 AM 82.4°F28.0°C 65.7°F18.7°C 57% 0.7 mph W1.1 kmh W 3.1 mph5.0 kmh 29.71 in1006.1 mb 0.00 in0.0 mm 0.00 in0.0 mm 0.00 in0.0 mm
08:15 AM 79.3°F26.3°C 65.7°F18.7°C 63% 0.7 mph W1.1 kmh W 3.8 mph6.1 kmh 29.71 in1006.1 mb 0.00 in0.0 mm 0.00 in0.0 mm 0.00 in0.0 mm
08:00 AM 78.1°F25.6°C 65.8°F18.8°C 66% 2.2 mph NW3.5 kmh NW 4.5 mph7.2 kmh 29.70 in1005.8 mb 0.00 in0.0 mm 0.00 in0.0 mm 0.00 in0.0 mm
07:45 AM 77.4°F25.2°C 65.2°F18.4°C 66% 3.8 mph NW6.1 kmh NW 6.0 mph9.7 kmh 29.70 in1005.8 mb 0.00 in0.0 mm 0.00 in0.0 mm 0.00 in0.0 mm
07:30 AM 77.9°F25.5°C 65.2°F18.4°C 65% 2.2 mph NNW3.5 kmh NNW 5.4 mph8.7 kmh 29.70 in1005.8 mb 0.00 in0.0 mm 0.00 in0.0 mm 0.00 in0.0 mm
07:15 AM 79.5°F26.4°C 65.9°F18.8°C 63% 2.2 mph S3.5 kmh S 3.1 mph5.0 kmh 29.69 in1005.4 mb 0.00 in0.0 mm 0.00 in0.0 mm 0.00 in0.0 mm
07:00 AM 79.5°F26.4°C 67.2°F19.6°C 66% 0.7 mph SE1.1 kmh SE 3.1 mph5.0 kmh 29.69 in1005.4 mb 0.00 in0.0 mm 0.00 in0.0 mm 0.00 in0.0 mm
06:45 AM 77.5°F25.3°C 67.0°F19.4°C 70% 2.2 mph S3.5 kmh S 6.0 mph9.7 kmh 29.68 in1005.1 mb 0.00 in0.0 mm 0.00 in0.0 mm 0.00 in0.0 mm
06:30 AM 76.8°F24.9°C 67.6°F19.8°C 73% 2.2 mph S3.5 kmh S 6.0 mph9.7 kmh 29.68 in1005.1 mb 0.00 in0.0 mm 0.00 in0.0 mm 0.00 in0.0 mm
06:15 AM 77.0°F25.0°C 67.3°F19.6°C 72% 1.6 mph S2.6 kmh S 6.9 mph11.1 kmh 29.68 in1005.1 mb 0.00 in0.0 mm 0.00 in0.0 mm 0.00 in0.0 mm
06:00 AM 77.2°F25.1°C 67.1°F19.5°C 71% 3.1 mph S5.0 kmh S 8.3 mph13.4 kmh 29.67 in1004.7 mb 0.00 in0.0 mm 0.00 in0.0 mm 0.00 in0.0 mm
05:45 AM 77.7°F25.4°C 66.4°F19.1°C 68% 4.5 mph S7.2 kmh S 6.9 mph11.1 kmh 29.68 in1005.1 mb 0.00 in0.0 mm 0.00 in0.0 mm 0.00 in0.0 mm
05:30 AM 78.3°F25.7°C 66.4°F19.1°C 67% 1.6 mph SE2.6 kmh SE 7.6 mph12.2 kmh 29.67 in1004.7 mb 0.00 in0.0 mm 0.00 in0.0 mm 0.00 in0.0 mm
05:15 AM 78.6°F25.9°C 65.9°F18.8°C 65% 2.2 mph SE3.5 kmh SE 5.4 mph8.7 kmh 29.67 in1004.7 mb 0.00 in0.0 mm 0.00 in0.0 mm 0.00 in0.0 mm
05:00 AM 78.6°F25.9°C 65.9°F18.8°C 65% 1.6 mph SE2.6 kmh SE 4.5 mph7.2 kmh 29.67 in1004.7 mb 0.00 in0.0 mm 0.00 in0.0 mm 0.00 in0.0 mm
04:45 AM 78.6°F25.9°C 65.9°F18.8°C 65% 1.6 mph SE2.6 kmh SE 3.1 mph5.0 kmh 29.66 in1004.4 mb 0.00 in0.0 mm 0.00 in0.0 mm 0.00 in0.0 mm
04:30 AM 78.6°F25.9°C 65.5°F18.6°C 64% 2.2 mph S3.5 kmh S 6.0 mph9.7 kmh 29.66 in1004.4 mb 0.00 in0.0 mm 0.00 in0.0 mm 0.00 in0.0 mm
04:15 AM 79.2°F26.2°C 65.1°F18.4°C 62% 2.2 mph S3.5 kmh S 6.9 mph11.1 kmh 29.66 in1004.4 mb 0.00 in0.0 mm 0.00 in0.0 mm 0.00 in0.0 mm
04:00 AM 80.1°F26.7°C 64.0°F17.8°C 58% 3.8 mph S6.1 kmh S 8.3 mph13.4 kmh 29.66 in1004.4 mb 0.00 in0.0 mm 0.00 in0.0 mm 0.00 in0.0 mm
03:45 AM 80.4°F26.9°C 62.8°F17.1°C 55% 3.8 mph S6.1 kmh S 5.4 mph8.7 kmh 29.66 in1004.4 mb 0.00 in0.0 mm 0.00 in0.0 mm 0.00 in0.0 mm
03:30 AM 80.8°F27.1°C 62.1°F16.7°C 53% 0.7 mph S1.1 kmh S 6.0 mph9.7 kmh 29.66 in1004.4 mb 0.00 in0.0 mm 0.00 in0.0 mm 0.00 in0.0 mm
03:15 AM 80.6°F27.0°C 61.9°F16.6°C 53% 1.6 mph SW2.6 kmh SW 6.0 mph9.7 kmh 29.66 in1004.4 mb 0.00 in0.0 mm 0.00 in0.0 mm 0.00 in0.0 mm
03:00 AM 79.9°F26.6°C 62.3°F16.8°C 55% 1.6 mph W2.6 kmh W 3.1 mph5.0 kmh 29.66 in1004.4 mb 0.00 in0.0 mm 0.00 in0.0 mm 0.00 in0.0 mm
02:45 AM 79.3°F26.3°C 64.3°F17.9°C 60% 1.6 mph WNW2.6 kmh WNW 3.8 mph6.1 kmh 29.67 in1004.7 mb 0.00 in0.0 mm 0.00 in0.0 mm 0.00 in0.0 mm
02:30 AM 79.3°F26.3°C 64.8°F18.2°C 61% 1.6 mph W2.6 kmh W 3.8 mph6.1 kmh 29.67 in1004.7 mb 0.00 in0.0 mm 0.00 in0.0 mm 0.00 in0.0 mm
02:15 AM 80.1°F26.7°C 65.0°F18.3°C 60% 1.6 mph W2.6 kmh W 4.5 mph7.2 kmh 29.67 in1004.7 mb 0.00 in0.0 mm 0.00 in0.0 mm 0.00 in0.0 mm
02:00 AM 81.0°F27.2°C 64.8°F18.2°C 58% 0.7 mph NW1.1 kmh NW 3.8 mph6.1 kmh 29.67 in1004.7 mb 0.00 in0.0 mm 0.00 in0.0 mm 0.00 in0.0 mm
01:45 AM 82.6°F28.1°C 64.8°F18.2°C 55% 2.2 mph NW3.5 kmh NW 3.1 mph5.0 kmh 29.68 in1005.1 mb 0.00 in0.0 mm 0.00 in0.0 mm 0.00 in0.0 mm
01:30 AM 83.7°F28.7°C 61.9°F16.6°C 48% Calm Calm 1.6 mph2.6 kmh 29.67 in1004.7 mb 0.00 in0.0 mm 0.00 in0.0 mm 0.00 in0.0 mm
01:15 AM 84.0°F28.9°C 62.3°F16.8°C 48% Calm Calm 2.2 mph3.5 kmh 29.67 in1004.7 mb 0.00 in0.0 mm 0.00 in0.0 mm 0.00 in0.0 mm
01:00 AM 84.4°F29.1°C 62.6°F17.0°C 48% 1.6 mph S2.6 kmh S 3.8 mph6.1 kmh 29.68 in1005.1 mb 0.00 in0.0 mm 0.00 in0.0 mm 0.00 in0.0 mm
12:45 AM 85.1°F29.5°C 62.7°F17.1°C 47% 2.2 mph SSE3.5 kmh SSE 4.5 mph7.2 kmh 29.67 in1004.7 mb 0.00 in0.0 mm 0.00 in0.0 mm 0.00 in0.0 mm
12:30 AM 86.2°F30.1°C 61.8°F16.6°C 44% 3.1 mph SE5.0 kmh SE 4.5 mph7.2 kmh 29.68 in1005.1 mb 0.00 in0.0 mm 0.00 in0.0 mm 0.00 in0.0 mm
12:15 AM 86.5°F30.3°C 61.4°F16.3°C 43% 2.2 mph SE3.5 kmh SE 4.5 mph7.2 kmh 29.68 in1005.1 mb 0.00 in0.0 mm 0.00 in0.0 mm 0.00 in0.0 mm
12:00 AM 86.4°F30.2°C 61.3°F16.3°C 43% 1.6 mph SE2.6 kmh SE 3.8 mph6.1 kmh 29.68 in1005.1 mb 0.00 in0.0 mm 0.00 in0.0 mm 0.00 in0.0 mm